sensor_id;sensor_type;location;lat;lon;timestamp;pressure;altitude;pressure_sealevel;temperature;humidity
35848;BME280;22332;51.954;20.118;2022-09-28T00:01:47;98384.91;;;12.77;83.70
35848;BME280;22332;51.954;20.118;2022-09-28T00:04:53;98383.27;;;12.76;83.74
35848;BME280;22332;51.954;20.118;2022-09-28T00:07:59;98380.22;;;12.75;83.60
35848;BME280;22332;51.954;20.118;2022-09-28T00:11:06;98377.43;;;12.72;83.69
35848;BME280;22332;51.954;20.118;2022-09-28T00:14:14;98372.83;;;12.69;83.92
35848;BME280;22332;51.954;20.118;2022-09-28T00:17:20;98373.08;;;12.70;83.97
35848;BME280;22332;51.954;20.118;2022-09-28T00:20:26;98376.45;;;12.71;83.88
35848;BME280;22332;51.954;20.118;2022-09-28T00:23:32;98369.58;;;12.73;83.89
35848;BME280;22332;51.954;20.118;2022-09-28T00:26:38;98371.77;;;12.75;83.95
35848;BME280;22332;51.954;20.118;2022-09-28T00:29:44;98359.63;;;12.75;83.91
35848;BME280;22332;51.954;20.118;2022-09-28T00:32:50;98360.84;;;12.73;84.09
35848;BME280;22332;51.954;20.118;2022-09-28T00:35:59;98356.31;;;12.72;84.06
35848;BME280;22332;51.954;20.118;2022-09-28T00:39:06;98351.95;;;12.73;84.01
35848;BME280;22332;51.954;20.118;2022-09-28T00:42:15;98349.09;;;12.74;83.95
35848;BME280;22332;51.954;20.118;2022-09-28T00:45:22;98346.96;;;12.75;84.05
35848;BME280;22332;51.954;20.118;2022-09-28T00:48:33;98347.30;;;12.76;84.04
35848;BME280;22332;51.954;20.118;2022-09-28T00:51:42;98346.88;;;12.73;84.17
35848;BME280;22332;51.954;20.118;2022-09-28T00:54:49;98342.48;;;12.70;84.17
35848;BME280;22332;51.954;20.118;2022-09-28T00:57:58;98341.76;;;12.69;84.19
35848;BME280;22332;51.954;20.118;2022-09-28T01:01:06;98343.62;;;12.69;84.23
35848;BME280;22332;51.954;20.118;2022-09-28T01:04:12;98343.89;;;12.71;84.25
35848;BME280;22332;51.954;20.118;2022-09-28T01:07:18;98347.38;;;12.72;84.18
35848;BME280;22332;51.954;20.118;2022-09-28T01:10:24;98349.11;;;12.71;84.18
35848;BME280;22332;51.954;20.118;2022-09-28T01:13:32;98348.64;;;12.67;83.92
35848;BME280;22332;51.954;20.118;2022-09-28T01:16:43;98344.17;;;12.62;84.26
35848;BME280;22332;51.954;20.118;2022-09-28T01:20:27;98346.45;;;12.60;84.01
35848;BME280;22332;51.954;20.118;2022-09-28T01:24:10;98353.23;;;12.55;84.24
35848;BME280;22332;51.954;20.118;2022-09-28T01:27:20;98350.84;;;12.47;84.15
35848;BME280;22332;51.954;20.118;2022-09-28T01:30:38;98343.77;;;12.40;84.07
35848;BME280;22332;51.954;20.118;2022-09-28T01:33:47;98349.75;;;12.30;84.22
35848;BME280;22332;51.954;20.118;2022-09-28T01:36:57;98354.81;;;12.26;84.18
35848;BME280;22332;51.954;20.118;2022-09-28T01:40:07;98361.21;;;12.20;84.07
35848;BME280;22332;51.954;20.118;2022-09-28T01:43:18;98360.23;;;12.15;84.35
35848;BME280;22332;51.954;20.118;2022-09-28T01:46:29;98363.25;;;12.14;84.18
35848;BME280;22332;51.954;20.118;2022-09-28T01:49:38;98363.89;;;12.13;84.06
35848;BME280;22332;51.954;20.118;2022-09-28T01:52:50;98366.52;;;12.12;84.26
35848;BME280;22332;51.954;20.118;2022-09-28T01:56:00;98368.06;;;12.10;83.99
35848;BME280;22332;51.954;20.118;2022-09-28T01:59:09;98366.83;;;12.07;84.11
35848;BME280;22332;51.954;20.118;2022-09-28T02:02:18;98364.48;;;12.05;84.14
35848;BME280;22332;51.954;20.118;2022-09-28T02:05:31;98369.19;;;12.03;84.15
35848;BME280;22332;51.954;20.118;2022-09-28T02:08:42;98367.22;;;12.01;83.97
35848;BME280;22332;51.954;20.118;2022-09-28T02:11:56;98369.31;;;12.02;84.31
35848;BME280;22332;51.954;20.118;2022-09-28T02:15:10;98369.64;;;12.04;83.99
35848;BME280;22332;51.954;20.118;2022-09-28T02:18:18;98367.41;;;12.04;83.99
35848;BME280;22332;51.954;20.118;2022-09-28T02:21:27;98368.61;;;12.02;84.17
35848;BME280;22332;51.954;20.118;2022-09-28T02:24:37;98364.81;;;11.97;84.06
35848;BME280;22332;51.954;20.118;2022-09-28T02:27:49;98361.92;;;11.94;84.04
35848;BME280;22332;51.954;20.118;2022-09-28T02:30:59;98356.58;;;11.92;84.22
35848;BME280;22332;51.954;20.118;2022-09-28T02:34:05;98360.41;;;11.94;84.24
35848;BME280;22332;51.954;20.118;2022-09-28T02:37:10;98359.50;;;11.97;84.07
35848;BME280;22332;51.954;20.118;2022-09-28T02:40:18;98357.81;;;11.99;84.04
35848;BME280;22332;51.954;20.118;2022-09-28T02:43:26;98359.42;;;11.99;84.08
35848;BME280;22332;51.954;20.118;2022-09-28T02:46:44;98360.04;;;11.94;83.94
35848;BME280;22332;51.954;20.118;2022-09-28T02:50:09;98355.42;;;11.90;83.91
35848;BME280;22332;51.954;20.118;2022-09-28T02:53:39;98354.02;;;11.86;83.90
35848;BME280;22332;51.954;20.118;2022-09-28T02:56:57;98349.79;;;11.85;83.83
35848;BME280;22332;51.954;20.118;2022-09-28T03:00:10;98350.90;;;11.84;83.88
35848;BME280;22332;51.954;20.118;2022-09-28T03:03:23;98351.76;;;11.80;83.59
35848;BME280;22332;51.954;20.118;2022-09-28T03:06:38;98351.23;;;11.74;83.94
35848;BME280;22332;51.954;20.118;2022-09-28T03:09:49;98359.21;;;11.66;83.87
35848;BME280;22332;51.954;20.118;2022-09-28T03:12:57;98366.58;;;11.60;83.98
35848;BME280;22332;51.954;20.118;2022-09-28T03:16:11;98365.48;;;11.57;84.03
35848;BME280;22332;51.954;20.118;2022-09-28T03:19:20;98360.52;;;11.57;83.85
35848;BME280;22332;51.954;20.118;2022-09-28T03:22:28;98360.98;;;11.59;83.89
35848;BME280;22332;51.954;20.118;2022-09-28T03:25:34;98359.21;;;11.56;83.94
35848;BME280;22332;51.954;20.118;2022-09-28T03:28:40;98361.89;;;11.53;83.76
35848;BME280;22332;51.954;20.118;2022-09-28T03:31:48;98362.59;;;11.46;83.69
35848;BME280;22332;51.954;20.118;2022-09-28T03:34:54;98367.27;;;11.40;83.72
35848;BME280;22332;51.954;20.118;2022-09-28T03:37:59;98368.08;;;11.37;83.77
35848;BME280;22332;51.954;20.118;2022-09-28T03:41:06;98368.89;;;11.37;83.80
35848;BME280;22332;51.954;20.118;2022-09-28T03:44:14;98374.80;;;11.37;83.83
35848;BME280;22332;51.954;20.118;2022-09-28T03:47:21;98382.10;;;11.32;83.70
35848;BME280;22332;51.954;20.118;2022-09-28T03:50:27;98385.38;;;11.27;83.59
35848;BME280;22332;51.954;20.118;2022-09-28T03:53:33;98382.21;;;11.22;83.86
35848;BME280;22332;51.954;20.118;2022-09-28T03:56:39;98390.48;;;11.14;83.71
35848;BME280;22332;51.954;20.118;2022-09-28T03:59:44;98389.09;;;11.11;83.67
35848;BME280;22332;51.954;20.118;2022-09-28T04:02:49;98389.70;;;11.11;83.64
35848;BME280;22332;51.954;20.118;2022-09-28T04:05:55;98390.77;;;11.11;83.70
35848;BME280;22332;51.954;20.118;2022-09-28T04:09:00;98395.95;;;11.09;83.68
35848;BME280;22332;51.954;20.118;2022-09-28T04:12:07;98397.54;;;11.09;83.65
35848;BME280;22332;51.954;20.118;2022-09-28T04:15:13;98401.02;;;11.05;83.59
35848;BME280;22332;51.954;20.118;2022-09-28T04:18:19;98401.30;;;10.99;83.65
35848;BME280;22332;51.954;20.118;2022-09-28T04:21:43;98405.59;;;10.96;83.56
35848;BME280;22332;51.954;20.118;2022-09-28T04:24:51;98404.93;;;10.96;83.86
35848;BME280;22332;51.954;20.118;2022-09-28T04:27:57;98404.23;;;10.95;83.77
35848;BME280;22332;51.954;20.118;2022-09-28T04:31:22;98405.60;;;10.93;83.68
35848;BME280;22332;51.954;20.118;2022-09-28T04:34:28;98403.23;;;10.89;83.63
35848;BME280;22332;51.954;20.118;2022-09-28T04:37:33;98400.77;;;10.85;83.56
35848;BME280;22332;51.954;20.118;2022-09-28T04:40:39;98400.61;;;10.76;83.64
35848;BME280;22332;51.954;20.118;2022-09-28T04:43:46;98399.59;;;10.65;83.50
35848;BME280;22332;51.954;20.118;2022-09-28T04:46:55;98394.20;;;10.60;83.43
35848;BME280;22332;51.954;20.118;2022-09-28T04:50:07;98397.90;;;10.56;83.60
35848;BME280;22332;51.954;20.118;2022-09-28T04:53:33;98390.91;;;10.52;83.42
35848;BME280;22332;51.954;20.118;2022-09-28T04:56:39;98393.23;;;10.48;83.46
35848;BME280;22332;51.954;20.118;2022-09-28T04:59:45;98389.73;;;10.43;83.54
35848;BME280;22332;51.954;20.118;2022-09-28T05:02:51;98395.94;;;10.38;83.22
35848;BME280;22332;51.954;20.118;2022-09-28T05:06:24;98395.55;;;10.30;82.98
35848;BME280;22332;51.954;20.118;2022-09-28T05:09:37;98397.72;;;10.25;83.21
35848;BME280;22332;51.954;20.118;2022-09-28T05:12:42;98395.20;;;10.24;83.09
35848;BME280;22332;51.954;20.118;2022-09-28T05:15:52;98394.80;;;10.26;83.40
35848;BME280;22332;51.954;20.118;2022-09-28T05:18:58;98394.83;;;10.28;83.30
35848;BME280;22332;51.954;20.118;2022-09-28T05:22:04;98391.55;;;10.29;83.08
35848;BME280;22332;51.954;20.118;2022-09-28T05:25:20;98389.05;;;10.28;83.06
35848;BME280;22332;51.954;20.118;2022-09-28T05:28:43;98386.93;;;10.25;83.21
35848;BME280;22332;51.954;20.118;2022-09-28T05:32:15;98393.33;;;10.22;83.28
35848;BME280;22332;51.954;20.118;2022-09-28T05:35:39;98399.27;;;10.24;83.52
35848;BME280;22332;51.954;20.118;2022-09-28T05:38:54;98401.02;;;10.27;83.34
35848;BME280;22332;51.954;20.118;2022-09-28T05:42:07;98401.23;;;10.31;83.57
35848;BME280;22332;51.954;20.118;2022-09-28T05:45:23;98402.50;;;10.39;83.82
35848;BME280;22332;51.954;20.118;2022-09-28T05:48:35;98400.40;;;10.46;83.74
35848;BME280;22332;51.954;20.118;2022-09-28T05:51:40;98398.15;;;10.48;83.56
35848;BME280;22332;51.954;20.118;2022-09-28T05:54:47;98405.67;;;10.48;83.73
35848;BME280;22332;51.954;20.118;2022-09-28T05:57:52;98410.38;;;10.49;83.55
35848;BME280;22332;51.954;20.118;2022-09-28T06:01:01;98408.27;;;10.52;83.50
35848;BME280;22332;51.954;20.118;2022-09-28T06:04:08;98405.18;;;10.59;83.89
35848;BME280;22332;51.954;20.118;2022-09-28T06:07:14;98402.21;;;10.64;83.59
35848;BME280;22332;51.954;20.118;2022-09-28T06:10:20;98403.14;;;10.69;83.78
35848;BME280;22332;51.954;20.118;2022-09-28T06:13:26;98406.91;;;10.73;83.82
35848;BME280;22332;51.954;20.118;2022-09-28T06:16:32;98410.58;;;10.75;83.82
35848;BME280;22332;51.954;20.118;2022-09-28T06:19:38;98407.45;;;10.73;83.63
35848;BME280;22332;51.954;20.118;2022-09-28T06:23:02;98411.67;;;10.73;83.64
35848;BME280;22332;51.954;20.118;2022-09-28T06:26:08;98408.21;;;10.77;83.60
35848;BME280;22332;51.954;20.118;2022-09-28T06:29:13;98411.73;;;10.82;83.69
35848;BME280;22332;51.954;20.118;2022-09-28T06:32:22;98409.69;;;10.91;83.71
35848;BME280;22332;51.954;20.118;2022-09-28T06:35:29;98404.05;;;10.97;83.54
35848;BME280;22332;51.954;20.118;2022-09-28T06:38:35;98408.98;;;11.04;83.74
35848;BME280;22332;51.954;20.118;2022-09-28T06:41:41;98407.44;;;11.08;83.64
35848;BME280;22332;51.954;20.118;2022-09-28T06:44:52;98407.41;;;11.13;83.51
35848;BME280;22332;51.954;20.118;2022-09-28T06:48:19;98416.70;;;11.22;83.40
35848;BME280;22332;51.954;20.118;2022-09-28T06:51:25;98415.70;;;11.32;83.25
35848;BME280;22332;51.954;20.118;2022-09-28T06:54:49;98415.96;;;11.42;83.72
35848;BME280;22332;51.954;20.118;2022-09-28T06:58:01;98417.00;;;11.53;83.53
35848;BME280;22332;51.954;20.118;2022-09-28T07:01:08;98418.02;;;11.60;83.19
35848;BME280;22332;51.954;20.118;2022-09-28T07:04:40;98420.04;;;11.64;83.38
35848;BME280;22332;51.954;20.118;2022-09-28T07:08:12;98426.83;;;11.68;83.04
35848;BME280;22332;51.954;20.118;2022-09-28T07:11:25;98428.96;;;11.68;83.32
35848;BME280;22332;51.954;20.118;2022-09-28T07:14:51;98428.59;;;11.77;83.00
35848;BME280;22332;51.954;20.118;2022-09-28T07:18:02;98427.71;;;11.88;83.01
35848;BME280;22332;51.954;20.118;2022-09-28T07:21:08;98430.88;;;11.98;82.56
35848;BME280;22332;51.954;20.118;2022-09-28T07:24:14;98437.77;;;12.05;82.81
35848;BME280;22332;51.954;20.118;2022-09-28T07:27:38;98435.55;;;12.10;82.30
35848;BME280;22332;51.954;20.118;2022-09-28T07:31:08;98439.51;;;12.13;81.98
35848;BME280;22332;51.954;20.118;2022-09-28T07:34:27;98437.98;;;12.13;82.14
35848;BME280;22332;51.954;20.118;2022-09-28T07:37:37;98437.04;;;12.15;82.11
35848;BME280;22332;51.954;20.118;2022-09-28T07:40:42;98434.23;;;12.16;82.22
35848;BME280;22332;51.954;20.118;2022-09-28T07:44:06;98431.97;;;12.22;82.31
35848;BME280;22332;51.954;20.118;2022-09-28T07:47:13;98432.56;;;12.29;82.14
35848;BME280;22332;51.954;20.118;2022-09-28T07:50:47;98429.95;;;12.39;82.32
35848;BME280;22332;51.954;20.118;2022-09-28T07:54:08;98428.98;;;12.50;82.16
35848;BME280;22332;51.954;20.118;2022-09-28T07:57:32;98432.66;;;12.58;81.78
35848;BME280;22332;51.954;20.118;2022-09-28T08:01:01;98434.17;;;12.68;81.74
35848;BME280;22332;51.954;20.118;2022-09-28T08:04:07;98436.07;;;12.70;81.32
35848;BME280;22332;51.954;20.118;2022-09-28T08:07:14;98433.46;;;12.72;81.27
35848;BME280;22332;51.954;20.118;2022-09-28T08:10:20;98437.58;;;12.77;80.94
35848;BME280;22332;51.954;20.118;2022-09-28T08:13:35;98437.45;;;12.78;80.91
35848;BME280;22332;51.954;20.118;2022-09-28T08:17:03;98435.80;;;12.86;80.70
35848;BME280;22332;51.954;20.118;2022-09-28T08:20:16;98433.79;;;12.97;80.88
35848;BME280;22332;51.954;20.118;2022-09-28T08:23:39;98435.80;;;13.13;80.35
35848;BME280;22332;51.954;20.118;2022-09-28T08:26:45;98433.66;;;13.27;80.35
35848;BME280;22332;51.954;20.118;2022-09-28T08:29:52;98434.86;;;13.37;79.77
35848;BME280;22332;51.954;20.118;2022-09-28T08:33:21;98432.42;;;13.39;79.69
35848;BME280;22332;51.954;20.118;2022-09-28T08:36:27;98432.52;;;13.48;79.56
35848;BME280;22332;51.954;20.118;2022-09-28T08:40:14;98427.66;;;13.65;79.71
35848;BME280;22332;51.954;20.118;2022-09-28T08:43:48;98426.05;;;13.80;79.29
35848;BME280;22332;51.954;20.118;2022-09-28T08:47:12;98427.67;;;14.02;78.85
35848;BME280;22332;51.954;20.118;2022-09-28T08:51:03;98425.83;;;14.11;77.93
35848;BME280;22332;51.954;20.118;2022-09-28T08:54:41;98430.72;;;14.18;78.00
35848;BME280;22332;51.954;20.118;2022-09-28T08:57:56;98430.42;;;14.39;78.34
35848;BME280;22332;51.954;20.118;2022-09-28T09:01:06;98429.34;;;14.66;77.41
35848;BME280;22332;51.954;20.118;2022-09-28T09:04:14;98431.23;;;14.76;76.86
35848;BME280;22332;51.954;20.118;2022-09-28T09:07:59;98431.80;;;14.92;77.01
35848;BME280;22332;51.954;20.118;2022-09-28T09:11:28;98428.06;;;14.99;76.68
35848;BME280;22332;51.954;20.118;2022-09-28T09:14:56;98428.23;;;15.13;76.47
35848;BME280;22332;51.954;20.118;2022-09-28T09:18:13;98427.08;;;15.32;76.05
35848;BME280;22332;51.954;20.118;2022-09-28T09:21:39;98425.85;;;15.56;74.96
35848;BME280;22332;51.954;20.118;2022-09-28T09:24:50;98422.08;;;15.76;75.86
35848;BME280;22332;51.954;20.118;2022-09-28T09:28:10;98425.02;;;15.99;75.43
35848;BME280;22332;51.954;20.118;2022-09-28T09:31:34;98424.39;;;16.04;75.07
35848;BME280;22332;51.954;20.118;2022-09-28T09:34:56;98421.58;;;16.07;74.54
35848;BME280;22332;51.954;20.118;2022-09-28T09:42:16;98419.46;;;16.14;73.83
35848;BME280;22332;51.954;20.118;2022-09-28T09:45:57;98424.95;;;16.07;73.07
35848;BME280;22332;51.954;20.118;2022-09-28T09:49:27;98429.72;;;16.01;72.13
35848;BME280;22332;51.954;20.118;2022-09-28T09:52:44;98428.58;;;15.84;72.56
35848;BME280;22332;51.954;20.118;2022-09-28T09:55:56;98424.73;;;15.79;72.77
35848;BME280;22332;51.954;20.118;2022-09-28T09:59:36;98418.69;;;15.85;71.82
35848;BME280;22332;51.954;20.118;2022-09-28T10:02:53;98425.19;;;15.87;71.76
35848;BME280;22332;51.954;20.118;2022-09-28T10:06:24;98426.48;;;15.98;71.91
35848;BME280;22332;51.954;20.118;2022-09-28T10:09:30;98426.54;;;16.07;71.51
35848;BME280;22332;51.954;20.118;2022-09-28T10:12:55;98431.70;;;16.29;71.39
35848;BME280;22332;51.954;20.118;2022-09-28T10:16:01;98434.05;;;16.52;71.02
35848;BME280;22332;51.954;20.118;2022-09-28T10:19:13;98435.54;;;16.67;70.63
35848;BME280;22332;51.954;20.118;2022-09-28T10:22:56;98439.48;;;16.65;70.42
35848;BME280;22332;51.954;20.118;2022-09-28T10:26:08;98437.80;;;16.49;70.11
35848;BME280;22332;51.954;20.118;2022-09-28T10:29:18;98434.36;;;16.37;70.23
35848;BME280;22332;51.954;20.118;2022-09-28T10:32:26;98430.55;;;16.45;70.50
35848;BME280;22332;51.954;20.118;2022-09-28T10:35:41;98433.52;;;16.71;70.09
35848;BME280;22332;51.954;20.118;2022-09-28T10:38:49;98428.05;;;16.82;69.66
35848;BME280;22332;51.954;20.118;2022-09-28T10:42:10;98430.12;;;16.79;69.01
35848;BME280;22332;51.954;20.118;2022-09-28T10:45:20;98429.10;;;16.76;69.18
35848;BME280;22332;51.954;20.118;2022-09-28T10:48:28;98429.23;;;16.75;68.97
35848;BME280;22332;51.954;20.118;2022-09-28T10:51:43;98430.05;;;16.60;68.47
35848;BME280;22332;51.954;20.118;2022-09-28T10:54:58;98427.76;;;16.54;68.69
35848;BME280;22332;51.954;20.118;2022-09-28T10:58:21;98425.20;;;16.62;68.76
35848;BME280;22332;51.954;20.118;2022-09-28T11:01:32;98423.80;;;16.73;68.31
35848;BME280;22332;51.954;20.118;2022-09-28T11:04:41;98420.08;;;16.69;67.91
35848;BME280;22332;51.954;20.118;2022-09-28T11:07:48;98425.55;;;16.63;67.62
35848;BME280;22332;51.954;20.118;2022-09-28T11:11:07;98431.05;;;16.56;67.30
35848;BME280;22332;51.954;20.118;2022-09-28T11:14:23;98432.15;;;16.47;66.89
35848;BME280;22332;51.954;20.118;2022-09-28T11:17:32;98432.28;;;16.36;67.01
35848;BME280;22332;51.954;20.118;2022-09-28T11:20:42;98436.38;;;16.31;66.82
35848;BME280;22332;51.954;20.118;2022-09-28T11:24:00;98438.41;;;16.24;66.93
35848;BME280;22332;51.954;20.118;2022-09-28T11:27:20;98438.86;;;16.13;66.24
35848;BME280;22332;51.954;20.118;2022-09-28T11:30:29;98438.73;;;15.98;66.56
35848;BME280;22332;51.954;20.118;2022-09-28T11:34:03;98439.10;;;15.84;66.81
35848;BME280;22332;51.954;20.118;2022-09-28T11:37:34;98440.60;;;15.75;66.65
35848;BME280;22332;51.954;20.118;2022-09-28T11:40:50;98440.18;;;15.63;66.55
35848;BME280;22332;51.954;20.118;2022-09-28T11:44:13;98438.33;;;15.54;66.62
35848;BME280;22332;51.954;20.118;2022-09-28T11:50:53;98440.88;;;15.42;66.70
35848;BME280;22332;51.954;20.118;2022-09-28T11:54:13;98437.83;;;15.35;66.54
35848;BME280;22332;51.954;20.118;2022-09-28T11:57:25;98432.36;;;15.33;66.48
35848;BME280;22332;51.954;20.118;2022-09-28T12:00:38;98440.30;;;15.41;66.68
35848;BME280;22332;51.954;20.118;2022-09-28T12:03:51;98438.69;;;15.55;66.40
35848;BME280;22332;51.954;20.118;2022-09-28T12:07:01;98438.91;;;15.72;66.13
35848;BME280;22332;51.954;20.118;2022-09-28T12:10:13;98434.77;;;15.83;65.72
35848;BME280;22332;51.954;20.118;2022-09-28T12:13:25;98430.91;;;15.88;65.30
35848;BME280;22332;51.954;20.118;2022-09-28T12:16:36;98429.91;;;15.84;65.20
35848;BME280;22332;51.954;20.118;2022-09-28T12:19:46;98424.67;;;15.79;65.21
35848;BME280;22332;51.954;20.118;2022-09-28T12:23:02;98425.73;;;15.89;65.52
35848;BME280;22332;51.954;20.118;2022-09-28T12:26:19;98426.05;;;16.02;65.24
35848;BME280;22332;51.954;20.118;2022-09-28T12:29:31;98425.70;;;16.05;65.21
35848;BME280;22332;51.954;20.118;2022-09-28T12:32:40;98421.50;;;16.01;65.09
35848;BME280;22332;51.954;20.118;2022-09-28T12:35:57;98425.31;;;15.92;65.19
35848;BME280;22332;51.954;20.118;2022-09-28T12:39:13;98425.32;;;15.79;65.10
35848;BME280;22332;51.954;20.118;2022-09-28T12:42:34;98422.31;;;15.71;65.10
35848;BME280;22332;51.954;20.118;2022-09-28T12:46:00;98416.85;;;15.76;64.32
35848;BME280;22332;51.954;20.118;2022-09-28T12:49:36;98414.52;;;15.76;64.75
35848;BME280;22332;51.954;20.118;2022-09-28T12:52:57;98408.91;;;15.83;63.78
35848;BME280;22332;51.954;20.118;2022-09-28T12:56:12;98404.77;;;15.92;63.87
35848;BME280;22332;51.954;20.118;2022-09-28T12:59:27;98406.78;;;15.98;63.66
35848;BME280;22332;51.954;20.118;2022-09-28T13:03:07;98408.06;;;15.88;62.97
35848;BME280;22332;51.954;20.118;2022-09-28T13:06:39;98399.33;;;15.76;62.86
35848;BME280;22332;51.954;20.118;2022-09-28T13:09:56;98389.68;;;15.63;62.82
35848;BME280;22332;51.954;20.118;2022-09-28T13:13:18;98397.73;;;15.43;62.97
35848;BME280;22332;51.954;20.118;2022-09-28T13:16:34;98402.36;;;15.28;63.42
35848;BME280;22332;51.954;20.118;2022-09-28T13:19:48;98404.14;;;15.18;63.30
35848;BME280;22332;51.954;20.118;2022-09-28T13:22:54;98406.42;;;15.13;63.23
35848;BME280;22332;51.954;20.118;2022-09-28T13:26:12;98409.80;;;15.11;63.34
35848;BME280;22332;51.954;20.118;2022-09-28T13:29:21;98415.89;;;15.07;63.24
35848;BME280;22332;51.954;20.118;2022-09-28T13:32:27;98414.25;;;15.02;63.17
35848;BME280;22332;51.954;20.118;2022-09-28T13:35:34;98409.95;;;14.97;62.89
35848;BME280;22332;51.954;20.118;2022-09-28T13:38:49;98406.45;;;14.92;63.08
35848;BME280;22332;51.954;20.118;2022-09-28T13:41:55;98398.66;;;14.91;63.33
35848;BME280;22332;51.954;20.118;2022-09-28T13:48:42;98395.23;;;14.88;63.35
35848;BME280;22332;51.954;20.118;2022-09-28T13:52:02;98392.83;;;14.95;63.39
35848;BME280;22332;51.954;20.118;2022-09-28T13:55:20;98395.13;;;15.02;63.58
35848;BME280;22332;51.954;20.118;2022-09-28T13:58:31;98395.98;;;15.15;63.45
35848;BME280;22332;51.954;20.118;2022-09-28T14:01:43;98395.71;;;15.20;63.26
35848;BME280;22332;51.954;20.118;2022-09-28T14:04:55;98399.36;;;15.24;63.06
35848;BME280;22332;51.954;20.118;2022-09-28T14:08:25;98396.77;;;15.29;62.71
35848;BME280;22332;51.954;20.118;2022-09-28T14:11:54;98392.36;;;15.28;62.42
35848;BME280;22332;51.954;20.118;2022-09-28T14:15:00;98395.83;;;15.25;62.69
35848;BME280;22332;51.954;20.118;2022-09-28T14:18:12;98396.61;;;15.26;62.98
35848;BME280;22332;51.954;20.118;2022-09-28T14:21:44;98397.45;;;15.27;63.12
35848;BME280;22332;51.954;20.118;2022-09-28T14:25:01;98394.80;;;15.28;62.65
35848;BME280;22332;51.954;20.118;2022-09-28T14:28:29;98401.14;;;15.29;62.75
35848;BME280;22332;51.954;20.118;2022-09-28T14:31:41;98402.63;;;15.30;62.66
35848;BME280;22332;51.954;20.118;2022-09-28T14:34:55;98404.60;;;15.25;62.50
35848;BME280;22332;51.954;20.118;2022-09-28T14:38:10;98413.28;;;15.14;62.50
35848;BME280;22332;51.954;20.118;2022-09-28T14:41:38;98422.65;;;15.05;62.50
35848;BME280;22332;51.954;20.118;2022-09-28T14:48:22;98406.14;;;14.82;62.67
35848;BME280;22332;51.954;20.118;2022-09-28T14:52:00;98397.12;;;14.73;62.77
35848;BME280;22332;51.954;20.118;2022-09-28T14:55:13;98396.56;;;14.68;62.98
35848;BME280;22332;51.954;20.118;2022-09-28T14:58:21;98395.08;;;14.64;63.27
35848;BME280;22332;51.954;20.118;2022-09-28T15:01:27;98393.84;;;14.55;63.46
35848;BME280;22332;51.954;20.118;2022-09-28T15:04:35;98394.73;;;14.46;63.67
35848;BME280;22332;51.954;20.118;2022-09-28T15:07:47;98402.64;;;14.36;64.11
35848;BME280;22332;51.954;20.118;2022-09-28T15:10:53;98406.52;;;14.23;63.59
35848;BME280;22332;51.954;20.118;2022-09-28T15:14:07;98407.58;;;14.13;63.70
35848;BME280;22332;51.954;20.118;2022-09-28T15:17:17;98409.39;;;14.04;63.97
35848;BME280;22332;51.954;20.118;2022-09-28T15:20:26;98409.69;;;14.00;64.04
35848;BME280;22332;51.954;20.118;2022-09-28T15:23:37;98402.60;;;13.96;64.20
35848;BME280;22332;51.954;20.118;2022-09-28T15:26:48;98402.03;;;13.92;64.06
35848;BME280;22332;51.954;20.118;2022-09-28T15:30:21;98398.47;;;13.84;64.01
35848;BME280;22332;51.954;20.118;2022-09-28T15:33:28;98392.75;;;13.78;64.50
35848;BME280;22332;51.954;20.118;2022-09-28T15:36:51;98393.92;;;13.71;64.76
35848;BME280;22332;51.954;20.118;2022-09-28T15:40:00;98397.15;;;13.66;64.84
35848;BME280;22332;51.954;20.118;2022-09-28T15:43:20;98397.48;;;13.60;64.91
35848;BME280;22332;51.954;20.118;2022-09-28T15:46:28;98392.38;;;13.54;65.04
35848;BME280;22332;51.954;20.118;2022-09-28T15:49:37;98386.80;;;13.50;64.90
35848;BME280;22332;51.954;20.118;2022-09-28T15:52:51;98388.17;;;13.47;65.43
35848;BME280;22332;51.954;20.118;2022-09-28T15:56:03;98385.09;;;13.41;65.79
35848;BME280;22332;51.954;20.118;2022-09-28T15:59:21;98385.40;;;13.39;66.24
35848;BME280;22332;51.954;20.118;2022-09-28T16:02:30;98384.90;;;13.40;66.48
35848;BME280;22332;51.954;20.118;2022-09-28T16:05:41;98384.77;;;13.41;66.16
35848;BME280;22332;51.954;20.118;2022-09-28T16:08:49;98375.64;;;13.43;66.20
35848;BME280;22332;51.954;20.118;2022-09-28T16:11:55;98368.27;;;13.41;65.96
35848;BME280;22332;51.954;20.118;2022-09-28T16:15:04;98368.86;;;13.40;65.90
35848;BME280;22332;51.954;20.118;2022-09-28T16:18:19;98370.16;;;13.37;65.93
35848;BME280;22332;51.954;20.118;2022-09-28T16:21:43;98370.33;;;13.32;66.04
35848;BME280;22332;51.954;20.118;2022-09-28T16:24:54;98384.75;;;13.27;66.06
35848;BME280;22332;51.954;20.118;2022-09-28T16:28:01;98396.92;;;13.24;66.25
35848;BME280;22332;51.954;20.118;2022-09-28T16:31:24;98391.40;;;13.18;66.42
35848;BME280;22332;51.954;20.118;2022-09-28T16:34:31;98398.19;;;13.13;66.55
35848;BME280;22332;51.954;20.118;2022-09-28T16:37:37;98400.35;;;13.09;66.92
35848;BME280;22332;51.954;20.118;2022-09-28T16:40:46;98399.14;;;13.03;67.08
35848;BME280;22332;51.954;20.118;2022-09-28T16:43:55;98397.15;;;13.00;67.03
35848;BME280;22332;51.954;20.118;2022-09-28T16:47:02;98398.16;;;12.96;67.21
35848;BME280;22332;51.954;20.118;2022-09-28T16:50:13;98405.50;;;12.92;67.59
35848;BME280;22332;51.954;20.118;2022-09-28T16:53:20;98411.70;;;12.88;67.96
35848;BME280;22332;51.954;20.118;2022-09-28T16:56:42;98414.29;;;12.89;68.40
35848;BME280;22332;51.954;20.118;2022-09-28T16:59:48;98421.90;;;12.89;68.72
35848;BME280;22332;51.954;20.118;2022-09-28T17:02:53;98427.19;;;12.87;68.99
35848;BME280;22332;51.954;20.118;2022-09-28T17:06:03;98441.13;;;12.82;68.97
35848;BME280;22332;51.954;20.118;2022-09-28T17:09:12;98447.38;;;12.77;69.01